sensor_id;sensor_type;location;lat;lon;timestamp;temperature;humidity
42989;DHT22;28622;43.716;20.668;2022-09-09T00:02:20;19.60;99.90
42989;DHT22;28622;43.716;20.668;2022-09-09T00:04:58;19.60;99.90
42989;DHT22;28622;43.716;20.668;2022-09-09T00:18:36;19.30;99.90
42989;DHT22;28622;43.716;20.668;2022-09-09T00:21:11;19.30;99.90
42989;DHT22;28622;43.716;20.668;2022-09-09T00:23:40;19.30;99.90
42989;DHT22;28622;43.716;20.668;2022-09-09T00:31:36;19.20;99.90
42989;DHT22;28622;43.716;20.668;2022-09-09T00:34:12;19.30;99.90
42989;DHT22;28622;43.716;20.668;2022-09-09T00:36:41;19.30;99.90
42989;DHT22;28622;43.716;20.668;2022-09-09T00:39:13;19.20;99.90
42989;DHT22;28622;43.716;20.668;2022-09-09T00:44:38;19.30;99.90
42989;DHT22;28622;43.716;20.668;2022-09-09T00:57:50;19.10;99.90
42989;DHT22;28622;43.716;20.668;2022-09-09T01:00:24;19.20;99.90
42989;DHT22;28622;43.716;20.668;2022-09-09T01:11:20;19.20;99.90
42989;DHT22;28622;43.716;20.668;2022-09-09T01:13:56;19.20;99.90
42989;DHT22;28622;43.716;20.668;2022-09-09T01:16:25;19.30;99.90
42989;DHT22;28622;43.716;20.668;2022-09-09T01:18:53;19.30;99.90
42989;DHT22;28622;43.716;20.668;2022-09-09T01:21:41;19.30;99.90
42989;DHT22;28622;43.716;20.668;2022-09-09T01:26:44;19.30;99.90
42989;DHT22;28622;43.716;20.668;2022-09-09T01:29:15;19.30;99.90
42989;DHT22;28622;43.716;20.668;2022-09-09T01:32:03;19.30;99.90
42989;DHT22;28622;43.716;20.668;2022-09-09T01:34:47;19.20;99.90
42989;DHT22;28622;43.716;20.668;2022-09-09T01:37:13;19.30;99.90
42989;DHT22;28622;43.716;20.668;2022-09-09T01:39:42;19.30;99.90
42989;DHT22;28622;43.716;20.668;2022-09-09T01:42:12;19.30;99.90
42989;DHT22;28622;43.716;20.668;2022-09-09T01:44:39;19.20;99.90
42989;DHT22;28622;43.716;20.668;2022-09-09T01:47:05;19.20;99.90
42989;DHT22;28622;43.716;20.668;2022-09-09T01:49:31;19.30;99.90
42989;DHT22;28622;43.716;20.668;2022-09-09T01:51:59;19.30;99.90
42989;DHT22;28622;43.716;20.668;2022-09-09T01:54:27;19.30;99.90
42989;DHT22;28622;43.716;20.668;2022-09-09T01:57:31;19.30;99.90
42989;DHT22;28622;43.716;20.668;2022-09-09T02:00:10;19.30;99.90
42989;DHT22;28622;43.716;20.668;2022-09-09T02:05:36;19.30;99.90
42989;DHT22;28622;43.716;20.668;2022-09-09T02:08:15;19.30;99.90
42989;DHT22;28622;43.716;20.668;2022-09-09T02:13:34;19.40;99.90
42989;DHT22;28622;43.716;20.668;2022-09-09T02:16:10;19.40;99.90
42989;DHT22;28622;43.716;20.668;2022-09-09T02:18:42;19.40;99.90
42989;DHT22;28622;43.716;20.668;2022-09-09T02:21:11;19.40;99.90
42989;DHT22;28622;43.716;20.668;2022-09-09T02:23:42;19.30;99.90
42989;DHT22;28622;43.716;20.668;2022-09-09T02:26:11;19.40;99.90
42989;DHT22;28622;43.716;20.668;2022-09-09T02:28:39;19.30;99.90
42989;DHT22;28622;43.716;20.668;2022-09-09T02:31:06;19.40;99.90
42989;DHT22;28622;43.716;20.668;2022-09-09T02:33:38;19.40;99.90
42989;DHT22;28622;43.716;20.668;2022-09-09T02:36:07;19.40;99.90
42989;DHT22;28622;43.716;20.668;2022-09-09T02:38:40;19.40;99.90
42989;DHT22;28622;43.716;20.668;2022-09-09T02:41:06;19.50;99.90
42989;DHT22;28622;43.716;20.668;2022-09-09T02:43:33;19.40;99.90
42989;DHT22;28622;43.716;20.668;2022-09-09T02:46:22;19.50;99.90
42989;DHT22;28622;43.716;20.668;2022-09-09T02:49:08;19.50;99.90
42989;DHT22;28622;43.716;20.668;2022-09-09T02:54:42;19.50;99.90
42989;DHT22;28622;43.716;20.668;2022-09-09T02:57:19;19.40;99.90
42989;DHT22;28622;43.716;20.668;2022-09-09T02:59:47;19.40;99.90
42989;DHT22;28622;43.716;20.668;2022-09-09T03:02:13;19.40;99.90
42989;DHT22;28622;43.716;20.668;2022-09-09T03:04:40;19.50;99.90
42989;DHT22;28622;43.716;20.668;2022-09-09T03:07:07;19.40;99.90
42989;DHT22;28622;43.716;20.668;2022-09-09T03:09:32;19.50;99.90
42989;DHT22;28622;43.716;20.668;2022-09-09T03:11:58;19.50;99.90
42989;DHT22;28622;43.716;20.668;2022-09-09T03:14:24;19.50;99.90
42989;DHT22;28622;43.716;20.668;2022-09-09T03:16:54;19.50;99.90
42989;DHT22;28622;43.716;20.668;2022-09-09T03:19:20;19.40;99.90
42989;DHT22;28622;43.716;20.668;2022-09-09T03:21:47;19.50;99.90
42989;DHT22;28622;43.716;20.668;2022-09-09T03:24:13;19.50;99.90
42989;DHT22;28622;43.716;20.668;2022-09-09T03:26:40;19.50;99.90
42989;DHT22;28622;43.716;20.668;2022-09-09T03:29:06;19.50;99.90
42989;DHT22;28622;43.716;20.668;2022-09-09T03:31:33;19.50;99.90
42989;DHT22;28622;43.716;20.668;2022-09-09T03:33:59;19.50;99.90
42989;DHT22;28622;43.716;20.668;2022-09-09T03:36:26;19.50;99.90
42989;DHT22;28622;43.716;20.668;2022-09-09T03:38:52;19.50;99.90
42989;DHT22;28622;43.716;20.668;2022-09-09T03:41:20;19.50;99.90
42989;DHT22;28622;43.716;20.668;2022-09-09T03:43:52;19.50;99.90
42989;DHT22;28622;43.716;20.668;2022-09-09T03:46:20;19.50;99.90
42989;DHT22;28622;43.716;20.668;2022-09-09T03:48:46;19.50;99.90
42989;DHT22;28622;43.716;20.668;2022-09-09T03:51:12;19.40;99.90
42989;DHT22;28622;43.716;20.668;2022-09-09T03:53:38;19.50;99.90
42989;DHT22;28622;43.716;20.668;2022-09-09T03:56:05;19.50;99.90
42989;DHT22;28622;43.716;20.668;2022-09-09T03:58:33;19.50;99.90
42989;DHT22;28622;43.716;20.668;2022-09-09T04:01:04;19.50;99.90
42989;DHT22;28622;43.716;20.668;2022-09-09T04:03:31;19.60;99.90
42989;DHT22;28622;43.716;20.668;2022-09-09T04:05:59;19.50;99.90
42989;DHT22;28622;43.716;20.668;2022-09-09T04:08:26;19.60;99.90
42989;DHT22;28622;43.716;20.668;2022-09-09T04:10:52;19.60;99.90
42989;DHT22;28622;43.716;20.668;2022-09-09T04:13:18;19.60;99.90
42989;DHT22;28622;43.716;20.668;2022-09-09T04:15:54;19.60;99.90
42989;DHT22;28622;43.716;20.668;2022-09-09T04:18:20;19.40;99.90
42989;DHT22;28622;43.716;20.668;2022-09-09T04:20:47;19.50;99.90
42989;DHT22;28622;43.716;20.668;2022-09-09T04:23:13;19.50;99.90
42989;DHT22;28622;43.716;20.668;2022-09-09T04:25:45;19.50;99.90
42989;DHT22;28622;43.716;20.668;2022-09-09T04:28:16;19.60;99.90
42989;DHT22;28622;43.716;20.668;2022-09-09T04:30:43;19.60;99.90
42989;DHT22;28622;43.716;20.668;2022-09-09T04:33:09;19.50;99.90
42989;DHT22;28622;43.716;20.668;2022-09-09T04:35:38;19.40;99.90
42989;DHT22;28622;43.716;20.668;2022-09-09T04:38:05;19.40;99.90
42989;DHT22;28622;43.716;20.668;2022-09-09T04:40:33;19.40;99.90
42989;DHT22;28622;43.716;20.668;2022-09-09T04:42:59;19.40;99.90
42989;DHT22;28622;43.716;20.668;2022-09-09T04:45:25;19.50;99.90
42989;DHT22;28622;43.716;20.668;2022-09-09T04:47:52;19.40;99.90
42989;DHT22;28622;43.716;20.668;2022-09-09T04:50:18;19.40;99.90
42989;DHT22;28622;43.716;20.668;2022-09-09T04:52:44;19.40;99.90
42989;DHT22;28622;43.716;20.668;2022-09-09T04:55:10;19.40;99.90
42989;DHT22;28622;43.716;20.668;2022-09-09T04:57:36;19.40;99.90
42989;DHT22;28622;43.716;20.668;2022-09-09T05:00:03;19.40;99.90
42989;DHT22;28622;43.716;20.668;2022-09-09T05:02:29;19.30;99.90
42989;DHT22;28622;43.716;20.668;2022-09-09T05:04:56;19.20;99.90
42989;DHT22;28622;43.716;20.668;2022-09-09T05:07:21;19.30;99.90
42989;DHT22;28622;43.716;20.668;2022-09-09T05:09:47;19.40;99.90
42989;DHT22;28622;43.716;20.668;2022-09-09T05:12:15;19.30;99.90
42989;DHT22;28622;43.716;20.668;2022-09-09T05:14:43;19.40;99.90
42989;DHT22;28622;43.716;20.668;2022-09-09T05:17:10;19.40;99.90
42989;DHT22;28622;43.716;20.668;2022-09-09T05:19:36;19.50;99.90
42989;DHT22;28622;43.716;20.668;2022-09-09T05:22:02;19.40;99.90
42989;DHT22;28622;43.716;20.668;2022-09-09T05:24:28;19.50;99.90
42989;DHT22;28622;43.716;20.668;2022-09-09T05:26:54;19.60;99.90
42989;DHT22;28622;43.716;20.668;2022-09-09T05:31:49;19.70;99.90
42989;DHT22;28622;43.716;20.668;2022-09-09T05:34:15;19.60;99.90
42989;DHT22;28622;43.716;20.668;2022-09-09T05:36:40;19.70;99.90
42989;DHT22;28622;43.716;20.668;2022-09-09T05:39:06;19.70;99.90
42989;DHT22;28622;43.716;20.668;2022-09-09T05:41:32;19.60;99.90
42989;DHT22;28622;43.716;20.668;2022-09-09T05:43:58;19.60;99.90
42989;DHT22;28622;43.716;20.668;2022-09-09T05:46:27;19.60;99.90
42989;DHT22;28622;43.716;20.668;2022-09-09T05:48:53;19.70;99.90
42989;DHT22;28622;43.716;20.668;2022-09-09T05:51:21;19.60;99.90
42989;DHT22;28622;43.716;20.668;2022-09-09T05:53:48;19.40;99.90
42989;DHT22;28622;43.716;20.668;2022-09-09T05:56:21;19.30;99.90
42989;DHT22;28622;43.716;20.668;2022-09-09T05:58:51;19.20;99.90
42989;DHT22;28622;43.716;20.668;2022-09-09T06:01:20;19.10;99.90
42989;DHT22;28622;43.716;20.668;2022-09-09T06:03:47;19.20;99.90
42989;DHT22;28622;43.716;20.668;2022-09-09T06:06:15;19.30;99.90
42989;DHT22;28622;43.716;20.668;2022-09-09T06:08:43;19.40;99.90
42989;DHT22;28622;43.716;20.668;2022-09-09T06:11:12;19.50;99.90
42989;DHT22;28622;43.716;20.668;2022-09-09T06:13:39;19.60;99.90
42989;DHT22;28622;43.716;20.668;2022-09-09T06:16:13;19.60;99.90
42989;DHT22;28622;43.716;20.668;2022-09-09T06:18:42;19.70;99.90
42989;DHT22;28622;43.716;20.668;2022-09-09T06:21:15;19.70;99.90
42989;DHT22;28622;43.716;20.668;2022-09-09T06:23:42;19.70;99.90
42989;DHT22;28622;43.716;20.668;2022-09-09T06:26:17;19.60;99.90
42989;DHT22;28622;43.716;20.668;2022-09-09T06:28:47;19.70;99.90
42989;DHT22;28622;43.716;20.668;2022-09-09T06:31:15;19.60;99.90
42989;DHT22;28622;43.716;20.668;2022-09-09T06:33:43;19.80;99.90
42989;DHT22;28622;43.716;20.668;2022-09-09T06:36:15;19.80;99.90
42989;DHT22;28622;43.716;20.668;2022-09-09T06:38:41;19.80;99.90
42989;DHT22;28622;43.716;20.668;2022-09-09T06:41:09;19.90;99.90
42989;DHT22;28622;43.716;20.668;2022-09-09T06:43:35;19.80;99.90
42989;DHT22;28622;43.716;20.668;2022-09-09T06:46:06;19.90;99.90
42989;DHT22;28622;43.716;20.668;2022-09-09T06:48:33;19.90;99.90
42989;DHT22;28622;43.716;20.668;2022-09-09T06:51:09;19.90;99.90
42989;DHT22;28622;43.716;20.668;2022-09-09T06:53:35;19.80;99.90
42989;DHT22;28622;43.716;20.668;2022-09-09T06:56:02;19.80;99.90
42989;DHT22;28622;43.716;20.668;2022-09-09T06:58:29;19.80;99.90
42989;DHT22;28622;43.716;20.668;2022-09-09T07:01:18;19.80;99.90
42989;DHT22;28622;43.716;20.668;2022-09-09T07:03:49;19.70;99.90
42989;DHT22;28622;43.716;20.668;2022-09-09T07:06:24;19.70;99.90
42989;DHT22;28622;43.716;20.668;2022-09-09T07:08:55;19.70;99.90
42989;DHT22;28622;43.716;20.668;2022-09-09T07:11:23;19.80;99.90
42989;DHT22;28622;43.716;20.668;2022-09-09T07:13:49;19.80;99.90
42989;DHT22;28622;43.716;20.668;2022-09-09T07:16:17;19.90;99.90
42989;DHT22;28622;43.716;20.668;2022-09-09T07:18:44;19.90;99.90
42989;DHT22;28622;43.716;20.668;2022-09-09T07:21:14;19.90;99.90
42989;DHT22;28622;43.716;20.668;2022-09-09T07:23:40;20.00;99.90
42989;DHT22;28622;43.716;20.668;2022-09-09T07:28:40;20.00;99.90
42989;DHT22;28622;43.716;20.668;2022-09-09T07:31:08;20.10;99.90
42989;DHT22;28622;43.716;20.668;2022-09-09T07:33:39;20.10;99.90
42989;DHT22;28622;43.716;20.668;2022-09-09T07:36:13;19.90;99.90
42989;DHT22;28622;43.716;20.668;2022-09-09T07:38:44;19.90;99.90
42989;DHT22;28622;43.716;20.668;2022-09-09T07:41:16;19.90;99.90
42989;DHT22;28622;43.716;20.668;2022-09-09T07:43:45;19.90;99.90
42989;DHT22;28622;43.716;20.668;2022-09-09T07:46:12;19.90;99.90
42989;DHT22;28622;43.716;20.668;2022-09-09T07:48:39;19.90;99.90
42989;DHT22;28622;43.716;20.668;2022-09-09T07:51:11;20.00;99.90
42989;DHT22;28622;43.716;20.668;2022-09-09T07:53:38;20.00;99.90
42989;DHT22;28622;43.716;20.668;2022-09-09T07:56:07;20.00;99.90
42989;DHT22;28622;43.716;20.668;2022-09-09T07:58:38;20.00;99.90
42989;DHT22;28622;43.716;20.668;2022-09-09T08:01:14;20.10;99.90
42989;DHT22;28622;43.716;20.668;2022-09-09T08:03:40;20.20;99.90
42989;DHT22;28622;43.716;20.668;2022-09-09T08:06:08;20.30;99.90
42989;DHT22;28622;43.716;20.668;2022-09-09T08:08:35;20.50;99.90
42989;DHT22;28622;43.716;20.668;2022-09-09T08:11:03;20.60;99.90
42989;DHT22;28622;43.716;20.668;2022-09-09T08:13:29;20.80;99.90
42989;DHT22;28622;43.716;20.668;2022-09-09T08:16:04;20.90;99.90
42989;DHT22;28622;43.716;20.668;2022-09-09T08:18:30;21.00;99.90
42989;DHT22;28622;43.716;20.668;2022-09-09T08:20:55;21.10;99.90
42989;DHT22;28622;43.716;20.668;2022-09-09T08:23:21;21.10;99.90
42989;DHT22;28622;43.716;20.668;2022-09-09T08:25:47;21.30;99.90
42989;DHT22;28622;43.716;20.668;2022-09-09T08:28:14;21.50;99.90
42989;DHT22;28622;43.716;20.668;2022-09-09T08:33:06;21.90;99.90
42989;DHT22;28622;43.716;20.668;2022-09-09T08:35:33;22.10;99.90
42989;DHT22;28622;43.716;20.668;2022-09-09T08:40:29;22.50;99.90
42989;DHT22;28622;43.716;20.668;2022-09-09T08:42:59;22.60;99.90
42989;DHT22;28622;43.716;20.668;2022-09-09T08:45:58;22.70;99.90
42989;DHT22;28622;43.716;20.668;2022-09-09T08:50:55;22.60;99.90
42989;DHT22;28622;43.716;20.668;2022-09-09T08:53:28;22.60;99.90
42989;DHT22;28622;43.716;20.668;2022-09-09T08:56:01;22.80;99.90
42989;DHT22;28622;43.716;20.668;2022-09-09T08:58:33;23.40;99.90
42989;DHT22;28622;43.716;20.668;2022-09-09T09:06:31;24.40;99.90
42989;DHT22;28622;43.716;20.668;2022-09-09T09:09:30;24.40;99.90
42989;DHT22;28622;43.716;20.668;2022-09-09T09:12:00;24.50;99.90
42989;DHT22;28622;43.716;20.668;2022-09-09T09:14:31;25.00;99.90
42989;DHT22;28622;43.716;20.668;2022-09-09T09:19:47;26.10;99.90
42989;DHT22;28622;43.716;20.668;2022-09-09T09:30:19;26.50;99.90
42989;DHT22;28622;43.716;20.668;2022-09-09T09:35:28;26.60;99.90
42989;DHT22;28622;43.716;20.668;2022-09-09T09:37:54;26.70;99.90
42989;DHT22;28622;43.716;20.668;2022-09-09T09:40:21;27.00;99.90
42989;DHT22;28622;43.716;20.668;2022-09-09T09:42:59;27.50;99.90
42989;DHT22;28622;43.716;20.668;2022-09-09T09:45:43;27.70;99.40
42989;DHT22;28622;43.716;20.668;2022-09-09T09:48:13;27.90;99.20
42989;DHT22;28622;43.716;20.668;2022-09-09T09:50:58;27.70;96.10
42989;DHT22;28622;43.716;20.668;2022-09-09T09:53:28;27.50;96.60
42989;DHT22;28622;43.716;20.668;2022-09-09T09:56:00;27.80;97.60
42989;DHT22;28622;43.716;20.668;2022-09-09T09:58:29;27.60;95.70
42989;DHT22;28622;43.716;20.668;2022-09-09T10:00:58;27.10;96.50
42989;DHT22;28622;43.716;20.668;2022-09-09T10:03:33;26.90;99.20
42989;DHT22;28622;43.716;20.668;2022-09-09T10:06:03;26.90;99.00
42989;DHT22;28622;43.716;20.668;2022-09-09T10:08:29;26.90;97.90
42989;DHT22;28622;43.716;20.668;2022-09-09T10:13:55;26.90;98.30
42989;DHT22;28622;43.716;20.668;2022-09-09T10:17:54;27.00;96.90
42989;DHT22;28622;43.716;20.668;2022-09-09T10:22:35;27.60;97.90
42989;DHT22;28622;43.716;20.668;2022-09-09T10:33:10;28.00;95.00
42989;DHT22;28622;43.716;20.668;2022-09-09T10:38:41;28.00;95.10
42989;DHT22;28622;43.716;20.668;2022-09-09T10:46:40;27.80;92.60
42989;DHT22;28622;43.716;20.668;2022-09-09T10:49:23;27.60;93.20
42989;DHT22;28622;43.716;20.668;2022-09-09T10:52:20;27.50;92.70
42989;DHT22;28622;43.716;20.668;2022-09-09T10:55:13;27.50;93.10
42989;DHT22;28622;43.716;20.668;2022-09-09T10:57:50;27.70;93.20
42989;DHT22;28622;43.716;20.668;2022-09-09T11:02:58;27.90;92.40
42989;DHT22;28622;43.716;20.668;2022-09-09T11:05:34;27.80;92.50
42989;DHT22;28622;43.716;20.668;2022-09-09T11:08:05;27.80;93.50
42989;DHT22;28622;43.716;20.668;2022-09-09T11:10:42;28.00;94.20
42989;DHT22;28622;43.716;20.668;2022-09-09T11:13:42;28.10;94.40
42989;DHT22;28622;43.716;20.668;2022-09-09T11:16:15;27.90;95.40
42989;DHT22;28622;43.716;20.668;2022-09-09T11:18:42;27.90;95.00
42989;DHT22;28622;43.716;20.668;2022-09-09T11:21:18;27.70;95.10
42989;DHT22;28622;43.716;20.668;2022-09-09T11:24:00;27.50;95.50
42989;DHT22;28622;43.716;20.668;2022-09-09T11:26:38;27.40;95.20
42989;DHT22;28622;43.716;20.668;2022-09-09T11:37:17;26.90;96.40
42989;DHT22;28622;43.716;20.668;2022-09-09T11:42:28;26.70;97.40
42989;DHT22;28622;43.716;20.668;2022-09-09T11:44:54;26.50;97.90
42989;DHT22;28622;43.716;20.668;2022-09-09T11:47:26;26.40;98.50
42989;DHT22;28622;43.716;20.668;2022-09-09T11:50:22;26.30;98.10
42989;DHT22;28622;43.716;20.668;2022-09-09T11:55:38;26.20;98.80
42989;DHT22;28622;43.716;20.668;2022-09-09T11:58:24;26.20;99.30
42989;DHT22;28622;43.716;20.668;2022-09-09T12:00:51;26.20;99.50
42989;DHT22;28622;43.716;20.668;2022-09-09T12:08:50;26.20;99.90
42989;DHT22;28622;43.716;20.668;2022-09-09T12:11:29;26.20;99.90
42989;DHT22;28622;43.716;20.668;2022-09-09T12:14:00;26.10;99.90
42989;DHT22;28622;43.716;20.668;2022-09-09T12:16:30;26.10;99.90
42989;DHT22;28622;43.716;20.668;2022-09-09T12:19:05;26.10;99.90
42989;DHT22;28622;43.716;20.668;2022-09-09T12:21:42;26.10;99.90
42989;DHT22;28622;43.716;20.668;2022-09-09T12:24:12;26.30;99.90
42989;DHT22;28622;43.716;20.668;2022-09-09T12:32:10;26.50;99.90
42989;DHT22;28622;43.716;20.668;2022-09-09T12:35:12;26.60;99.90
42989;DHT22;28622;43.716;20.668;2022-09-09T12:37:58;27.20;99.90
42989;DHT22;28622;43.716;20.668;2022-09-09T12:40:25;27.90;99.10
42989;DHT22;28622;43.716;20.668;2022-09-09T12:42:51;28.00;98.50
42989;DHT22;28622;43.716;20.668;2022-09-09T12:45:21;27.90;98.10
42989;DHT22;28622;43.716;20.668;2022-09-09T12:47:53;28.20;96.70
42989;DHT22;28622;43.716;20.668;2022-09-09T12:50:22;28.30;96.50
42989;DHT22;28622;43.716;20.668;2022-09-09T12:52:52;28.90;96.70
42989;DHT22;28622;43.716;20.668;2022-09-09T12:55:21;29.20;96.70
42989;DHT22;28622;43.716;20.668;2022-09-09T12:57:51;29.50;96.20
42989;DHT22;28622;43.716;20.668;2022-09-09T13:00:21;29.60;95.80
42989;DHT22;28622;43.716;20.668;2022-09-09T13:03:02;29.50;95.60
42989;DHT22;28622;43.716;20.668;2022-09-09T13:05:35;29.60;94.40
42989;DHT22;28622;43.716;20.668;2022-09-09T13:08:10;29.60;94.00
42989;DHT22;28622;43.716;20.668;2022-09-09T13:11:07;29.50;94.90
42989;DHT22;28622;43.716;20.668;2022-09-09T13:13:38;29.40;93.80
42989;DHT22;28622;43.716;20.668;2022-09-09T13:16:07;29.20;94.10
42989;DHT22;28622;43.716;20.668;2022-09-09T13:18:43;29.10;93.80
42989;DHT22;28622;43.716;20.668;2022-09-09T13:21:09;29.10;94.40
42989;DHT22;28622;43.716;20.668;2022-09-09T13:23:37;29.10;94.20
42989;DHT22;28622;43.716;20.668;2022-09-09T13:26:26;29.10;94.10
42989;DHT22;28622;43.716;20.668;2022-09-09T13:28:53;29.40;93.90
42989;DHT22;28622;43.716;20.668;2022-09-09T13:31:30;29.60;93.80
42989;DHT22;28622;43.716;20.668;2022-09-09T13:33:58;29.60;93.30
42989;DHT22;28622;43.716;20.668;2022-09-09T13:36:31;29.60;93.00
42989;DHT22;28622;43.716;20.668;2022-09-09T13:38:59;29.50;93.30
42989;DHT22;28622;43.716;20.668;2022-09-09T13:43:54;29.70;93.20
42989;DHT22;28622;43.716;20.668;2022-09-09T13:46:41;29.80;93.50
42989;DHT22;28622;43.716;20.668;2022-09-09T13:51:49;30.10;92.80
42989;DHT22;28622;43.716;20.668;2022-09-09T13:54:18;30.20;92.10
42989;DHT22;28622;43.716;20.668;2022-09-09T13:56:45;30.20;92.80
42989;DHT22;28622;43.716;20.668;2022-09-09T13:59:13;30.10;92.60
42989;DHT22;28622;43.716;20.668;2022-09-09T14:01:40;30.10;92.70
42989;DHT22;28622;43.716;20.668;2022-09-09T14:04:07;30.00;92.50
42989;DHT22;28622;43.716;20.668;2022-09-09T14:06:34;29.80;92.50
42989;DHT22;28622;43.716;20.668;2022-09-09T14:09:03;29.80;92.30
42989;DHT22;28622;43.716;20.668;2022-09-09T14:11:29;29.60;92.30
42989;DHT22;28622;43.716;20.668;2022-09-09T14:13:54;29.40;92.60
42989;DHT22;28622;43.716;20.668;2022-09-09T14:16:21;29.40;93.40
42989;DHT22;28622;43.716;20.668;2022-09-09T14:18:47;29.50;92.20
42989;DHT22;28622;43.716;20.668;2022-09-09T14:21:12;29.60;92.10
42989;DHT22;28622;43.716;20.668;2022-09-09T14:23:39;29.60;92.20
42989;DHT22;28622;43.716;20.668;2022-09-09T14:26:05;29.20;91.40
42989;DHT22;28622;43.716;20.668;2022-09-09T14:28:32;28.90;91.80
42989;DHT22;28622;43.716;20.668;2022-09-09T14:31:02;28.80;92.00
42989;DHT22;28622;43.716;20.668;2022-09-09T14:33:29;28.70;92.20
42989;DHT22;28622;43.716;20.668;2022-09-09T14:36:00;28.70;92.10
42989;DHT22;28622;43.716;20.668;2022-09-09T14:38:29;28.70;92.60
42989;DHT22;28622;43.716;20.668;2022-09-09T14:40:55;28.60;92.50
42989;DHT22;28622;43.716;20.668;2022-09-09T14:43:21;28.00;92.40
42989;DHT22;28622;43.716;20.668;2022-09-09T14:45:47;28.00;92.70
42989;DHT22;28622;43.716;20.668;2022-09-09T14:48:14;27.60;93.70
42989;DHT22;28622;43.716;20.668;2022-09-09T14:50:41;27.30;94.80
42989;DHT22;28622;43.716;20.668;2022-09-09T14:53:07;27.20;96.00
42989;DHT22;28622;43.716;20.668;2022-09-09T14:55:34;27.20;97.00
42989;DHT22;28622;43.716;20.668;2022-09-09T14:58:00;27.20;97.10
42989;DHT22;28622;43.716;20.668;2022-09-09T15:00:26;27.20;97.40
42989;DHT22;28622;43.716;20.668;2022-09-09T15:02:55;27.10;98.40
42989;DHT22;28622;43.716;20.668;2022-09-09T15:05:21;26.90;98.80
42989;DHT22;28622;43.716;20.668;2022-09-09T15:07:48;26.80;99.50
42989;DHT22;28622;43.716;20.668;2022-09-09T15:10:17;26.60;97.80
42989;DHT22;28622;43.716;20.668;2022-09-09T15:12:43;26.50;97.20
42989;DHT22;28622;43.716;20.668;2022-09-09T15:15:10;26.40;97.10
42989;DHT22;28622;43.716;20.668;2022-09-09T15:17:35;26.30;97.40
42989;DHT22;28622;43.716;20.668;2022-09-09T15:20:05;26.20;97.80
42989;DHT22;28622;43.716;20.668;2022-09-09T15:22:31;26.10;97.70
42989;DHT22;28622;43.716;20.668;2022-09-09T15:24:57;26.00;97.70
42989;DHT22;28622;43.716;20.668;2022-09-09T15:27:23;25.80;97.80
42989;DHT22;28622;43.716;20.668;2022-09-09T15:29:49;25.70;97.80
42989;DHT22;28622;43.716;20.668;2022-09-09T15:32:17;25.60;98.10
42989;DHT22;28622;43.716;20.668;2022-09-09T15:34:43;25.50;99.30
42989;DHT22;28622;43.716;20.668;2022-09-09T15:37:12;25.30;99.90
42989;DHT22;28622;43.716;20.668;2022-09-09T15:39:40;25.10;99.90
42989;DHT22;28622;43.716;20.668;2022-09-09T15:42:06;24.90;99.90
42989;DHT22;28622;43.716;20.668;2022-09-09T15:44:42;24.80;99.90
42989;DHT22;28622;43.716;20.668;2022-09-09T15:49:38;24.60;99.90
42989;DHT22;28622;43.716;20.668;2022-09-09T15:52:04;24.50;99.90
42989;DHT22;28622;43.716;20.668;2022-09-09T15:54:34;24.50;99.90
42989;DHT22;28622;43.716;20.668;2022-09-09T15:57:03;24.40;99.90
42989;DHT22;28622;43.716;20.668;2022-09-09T15:59:30;24.30;99.90
42989;DHT22;28622;43.716;20.668;2022-09-09T16:01:57;24.30;99.90
42989;DHT22;28622;43.716;20.668;2022-09-09T16:04:24;24.20;99.90
42989;DHT22;28622;43.716;20.668;2022-09-09T16:06:54;24.20;99.90
42989;DHT22;28622;43.716;20.668;2022-09-09T16:09:20;24.20;99.90
42989;DHT22;28622;43.716;20.668;2022-09-09T16:11:46;24.20;99.90
42989;DHT22;28622;43.716;20.668;2022-09-09T16:14:13;24.20;99.90
42989;DHT22;28622;43.716;20.668;2022-09-09T16:16:41;24.10;99.90
42989;DHT22;28622;43.716;20.668;2022-09-09T16:19:09;24.10;99.90
42989;DHT22;28622;43.716;20.668;2022-09-09T16:21:44;24.20;99.90
42989;DHT22;28622;43.716;20.668;2022-09-09T16:24:13;24.30;99.90
42989;DHT22;28622;43.716;20.668;2022-09-09T16:26:44;24.40;99.90
42989;DHT22;28622;43.716;20.668;2022-09-09T16:29:11;24.50;99.90
42989;DHT22;28622;43.716;20.668;2022-09-09T16:31:37;24.50;99.90
42989;DHT22;28622;43.716;20.668;2022-09-09T16:34:03;24.60;99.90
42989;DHT22;28622;43.716;20.668;2022-09-09T16:36:31;24.50;99.90
42989;DHT22;28622;43.716;20.668;2022-09-09T16:38:58;24.50;99.90
42989;DHT22;28622;43.716;20.668;2022-09-09T16:41:26;24.20;99.90
42989;DHT22;28622;43.716;20.668;2022-09-09T16:44:00;24.20;99.90
42989;DHT22;28622;43.716;20.668;2022-09-09T16:46:28;24.20;99.90
42989;DHT22;28622;43.716;20.668;2022-09-09T16:48:56;24.00;99.90
42989;DHT22;28622;43.716;20.668;2022-09-09T16:51:26;24.00;99.90
42989;DHT22;28622;43.716;20.668;2022-09-09T16:53:53;23.80;99.90
42989;DHT22;28622;43.716;20.668;2022-09-09T16:56:22;24.10;99.90
42989;DHT22;28622;43.716;20.668;2022-09-09T16:58:55;24.10;99.90
42989;DHT22;28622;43.716;20.668;2022-09-09T17:01:26;24.20;99.90
42989;DHT22;28622;43.716;20.668;2022-09-09T17:03:53;24.30;99.90
42989;DHT22;28622;43.716;20.668;2022-09-09T17:06:19;24.30;99.90
42989;DHT22;28622;43.716;20.668;2022-09-09T17:08:45;24.30;99.90
42989;DHT22;28622;43.716;20.668;2022-09-09T17:11:12;24.20;99.90
42989;DHT22;28622;43.716;20.668;2022-09-09T17:13:42;24.00;99.90
42989;DHT22;28622;43.716;20.668;2022-09-09T17:16:08;24.10;99.90
42989;DHT22;28622;43.716;20.668;2022-09-09T17:18:35;24.10;99.90
42989;DHT22;28622;43.716;20.668;2022-09-09T17:21:12;24.30;99.90
42989;DHT22;28622;43.716;20.668;2022-09-09T17:23:40;24.40;99.90
42989;DHT22;28622;43.716;20.668;2022-09-09T17:26:07;24.40;99.90
42989;DHT22;28622;43.716;20.668;2022-09-09T17:28:34;24.40;99.90
42989;DHT22;28622;43.716;20.668;2022-09-09T17:31:01;24.30;99.90
42989;DHT22;28622;43.716;20.668;2022-09-09T17:33:28;24.20;99.90
42989;DHT22;28622;43.716;20.668;2022-09-09T17:36:06;24.20;99.90
42989;DHT22;28622;43.716;20.668;2022-09-09T17:38:32;24.30;99.90
42989;DHT22;28622;43.716;20.668;2022-09-09T17:41:10;24.00;99.90
42989;DHT22;28622;43.716;20.668;2022-09-09T17:43:36;23.70;99.90
42989;DHT22;28622;43.716;20.668;2022-09-09T17:46:19;23.50;99.90
42989;DHT22;28622;43.716;20.668;2022-09-09T17:48:48;23.40;99.90
42989;DHT22;28622;43.716;20.668;2022-09-09T17:51:17;23.60;99.90
42989;DHT22;28622;43.716;20.668;2022-09-09T17:53:48;23.60;99.90